Time;durP1;ratioP1;P1;durP2;ratioP2;P2;SDS_P1;SDS_P2;PMS_P1;PMS_P2;Temp;Humidity;BMP_temperature;BMP_pressure;BME280_temperature;BME280_humidity;BME280_pressure;Samples;Min_cycle;Max_cycle;Signal;HPM_P1;HPM_P2
2023/08/23 00:00:09;;;;;;;14.18;7.38;;;17.50;99.90;;;;;;5088853;28;21030;-73
2023/08/23 00:02:35;;;;;;;10.05;7.15;;;17.50;99.90;;;;;;5090672;28;20440;-73
2023/08/23 00:05:01;;;;;;;11.88;7.35;;;17.40;99.90;;;;;;5085878;28;20127;-73
2023/08/23 00:07:26;;;;;;;17.10;7.15;;;17.40;99.90;;;;;;5088201;28;20427;-73
2023/08/23 00:09:52;;;;;;;8.95;6.65;;;17.40;99.90;;;;;;5077036;28;20133;-74
2023/08/23 00:12:18;;;;;;;10.48;7.10;;;17.30;99.90;;;;;;5086916;28;20405;-72
2023/08/23 00:14:44;;;;;;;12.43;7.30;;;17.30;99.90;;;;;;5081237;28;20048;-72
2023/08/23 00:17:09;;;;;;;10.88;7.00;;;17.30;99.90;;;;;;5095579;28;20502;-73
2023/08/23 00:19:35;;;;;;;12.65;7.15;;;17.30;99.90;;;;;;5079930;28;20127;-73
2023/08/23 00:22:02;;;;;;;11.07;6.93;;;17.30;99.90;;;;;;5093903;28;20124;-73
2023/08/23 00:24:28;;;;;;;9.47;7.67;;;17.30;99.90;;;;;;5085994;28;20050;-73
2023/08/23 00:26:55;;;;;;;10.27;6.22;;;17.30;99.90;;;;;;5091688;28;20044;-73
2023/08/23 00:29:21;;;;;;;10.40;7.13;;;17.30;99.90;;;;;;5087664;28;20040;-73
2023/08/23 00:31:46;;;;;;;10.98;7.00;;;17.30;99.90;;;;;;5091415;28;20044;-73
2023/08/23 00:34:12;;;;;;;11.10;6.95;;;17.30;99.90;;;;;;5102754;28;20047;-73
2023/08/23 00:36:37;;;;;;;10.60;6.50;;;17.30;99.90;;;;;;5096172;28;20051;-74
2023/08/23 00:39:03;;;;;;;12.32;7.25;;;17.30;99.90;;;;;;5092447;28;20040;-73
2023/08/23 00:41:29;;;;;;;10.57;7.47;;;17.20;99.90;;;;;;5091063;28;20043;-73
2023/08/23 00:43:57;;;;;;;13.77;7.78;;;17.20;99.90;;;;;;5081968;28;20126;-72
2023/08/23 00:46:24;;;;;;;16.00;8.77;;;17.20;99.90;;;;;;5086892;28;20135;-73
2023/08/23 00:48:50;;;;;;;12.32;7.68;;;17.30;99.90;;;;;;5098525;28;20051;-73
2023/08/23 00:51:17;;;;;;;11.80;7.85;;;17.20;99.90;;;;;;5088133;28;20077;-73
2023/08/23 00:53:43;;;;;;;11.23;8.27;;;17.30;99.90;;;;;;5100268;28;20040;-73
2023/08/23 00:56:09;;;;;;;13.32;8.80;;;17.20;99.90;;;;;;5085184;28;20043;-73
2023/08/23 00:58:35;;;;;;;13.43;8.32;;;17.20;99.90;;;;;;5087059;28;20048;-73
2023/08/23 01:01:01;;;;;;;12.27;8.43;;;17.20;99.90;;;;;;5087348;28;20096;-73
2023/08/23 01:03:26;;;;;;;11.20;8.30;;;17.20;99.90;;;;;;5080005;28;20513;-73
2023/08/23 01:06:23;;;;;;;13.68;8.43;;;17.20;99.90;;;;;;5090894;28;20485;-73
2023/08/23 01:09:12;;;;;;;12.80;7.95;;;17.20;99.90;;;;;;5087519;28;20094;-74
2023/08/23 01:12:27;;;;;;;12.75;9.35;;;17.20;99.90;;;;;;5094337;28;20079;-73
2023/08/23 01:15:07;;;;;;;16.80;12.43;;;17.10;99.90;;;;;;5076750;28;20048;-73
2023/08/23 01:17:41;;;;;;;16.00;9.60;;;17.10;99.90;;;;;;5098742;28;20040;-73
2023/08/23 01:20:09;;;;;;;16.80;9.40;;;17.10;99.90;;;;;;5089332;28;20052;-73
2023/08/23 01:22:38;;;;;;;15.13;9.35;;;17.10;99.90;;;;;;5090545;28;20070;-73
2023/08/23 01:25:04;;;;;;;15.13;9.98;;;17.00;99.90;;;;;;5092144;28;20040;-73
2023/08/23 01:27:32;;;;;;;14.88;8.63;;;17.00;99.90;;;;;;5092115;28;20093;-73
2023/08/23 01:29:58;;;;;;;16.55;9.25;;;17.00;99.90;;;;;;5082185;28;20040;-73
2023/08/23 01:32:50;;;;;;;15.90;9.43;;;17.00;99.90;;;;;;5088491;28;20486;-74
2023/08/23 01:35:27;;;;;;;14.23;9.02;;;17.00;99.90;;;;;;5071096;28;20044;-73
2023/08/23 01:37:55;;;;;;;12.80;8.65;;;17.00;99.90;;;;;;5092263;28;20040;-73
2023/08/23 01:40:22;;;;;;;15.27;9.10;;;17.00;99.90;;;;;;5088820;28;20478;-72
2023/08/23 01:42:49;;;;;;;16.58;9.18;;;17.00;99.90;;;;;;5099674;28;20043;-73
2023/08/23 01:45:15;;;;;;;14.98;8.95;;;17.00;99.90;;;;;;5107978;28;20039;-73
2023/08/23 01:47:40;;;;;;;13.93;8.38;;;17.00;99.90;;;;;;5115980;27;20049;-73
2023/08/23 01:50:07;;;;;;;15.63;10.30;;;17.00;99.90;;;;;;5090184;28;20128;-74
2023/08/23 01:52:32;;;;;;;15.70;8.95;;;17.00;99.90;;;;;;5090693;28;20043;-74
2023/08/23 01:54:58;;;;;;;13.07;9.13;;;16.90;99.90;;;;;;5099794;28;20040;-74
2023/08/23 01:57:25;;;;;;;12.68;8.75;;;16.90;99.90;;;;;;5088761;28;20039;-74
2023/08/23 01:59:52;;;;;;;14.52;8.43;;;16.90;99.90;;;;;;5082864;28;20039;-74
2023/08/23 02:02:17;;;;;;;13.25;9.00;;;16.90;99.90;;;;;;5076650;28;20119;-73
2023/08/23 02:04:43;;;;;;;15.60;8.70;;;16.90;99.90;;;;;;5081484;28;20135;-73
2023/08/23 02:07:09;;;;;;;14.77;9.13;;;16.90;99.90;;;;;;5081555;28;20040;-73
2023/08/23 02:09:34;;;;;;;13.15;8.25;;;16.80;99.90;;;;;;5087921;28;20044;-73
2023/08/23 02:12:00;;;;;;;14.77;9.57;;;16.80;99.90;;;;;;5091346;28;20048;-74
2023/08/23 02:14:26;;;;;;;18.52;10.25;;;16.80;99.90;;;;;;5095287;28;20045;-74
2023/08/23 02:16:51;;;;;;;16.75;9.95;;;16.80;99.90;;;;;;5095966;28;20092;-74
2023/08/23 02:19:17;;;;;;;16.58;9.95;;;16.80;99.90;;;;;;5095304;28;20447;-74
2023/08/23 02:21:43;;;;;;;13.18;9.30;;;16.80;99.90;;;;;;5094100;28;20052;-74
2023/08/23 02:24:08;;;;;;;14.82;9.55;;;16.80;99.90;;;;;;5092072;28;20036;-74
2023/08/23 02:26:37;;;;;;;14.50;9.88;;;16.80;99.90;;;;;;5118141;27;20048;-74
2023/08/23 02:29:03;;;;;;;21.58;9.93;;;16.80;99.90;;;;;;5094447;28;20036;-74
2023/08/23 02:31:29;;;;;;;17.80;9.93;;;16.80;99.90;;;;;;5089526;28;20044;-74
2023/08/23 02:33:55;;;;;;;16.25;10.45;;;16.80;99.90;;;;;;5094464;28;20071;-73
2023/08/23 02:36:20;;;;;;;16.70;9.48;;;16.80;99.90;;;;;;5078554;28;20064;-73
2023/08/23 02:38:46;;;;;;;18.77;10.13;;;16.80;99.90;;;;;;5093574;28;20438;-73
2023/08/23 02:41:12;;;;;;;14.40;9.27;;;16.70;99.90;;;;;;5090539;28;20032;-72
2023/08/23 02:43:38;;;;;;;20.48;10.32;;;16.80;99.90;;;;;;5082816;28;20051;-73
2023/08/23 02:46:04;;;;;;;18.60;10.18;;;16.70;99.90;;;;;;5090563;28;20075;-73
2023/08/23 02:48:29;;;;;;;15.32;9.80;;;16.70;99.90;;;;;;5092457;28;20083;-74
2023/08/23 02:50:56;;;;;;;16.80;10.07;;;16.70;99.90;;;;;;5087620;28;20048;-74
2023/08/23 02:53:21;;;;;;;17.42;10.55;;;16.70;99.90;;;;;;5097724;28;20062;-74
2023/08/23 02:55:47;;;;;;;16.48;10.68;;;16.60;99.90;;;;;;5082437;28;20498;-73
2023/08/23 02:58:13;;;;;;;17.30;10.15;;;16.60;99.90;;;;;;5081715;28;20041;-73
2023/08/23 03:00:39;;;;;;;15.80;9.35;;;16.60;99.90;;;;;;5082949;28;20040;-74
2023/08/23 03:03:05;;;;;;;16.10;9.30;;;16.60;99.90;;;;;;5081335;28;20044;-74
2023/08/23 03:05:30;;;;;;;16.25;9.95;;;16.50;99.90;;;;;;5085950;28;20051;-74
2023/08/23 03:07:56;;;;;;;16.85;9.93;;;16.60;99.90;;;;;;5086861;28;20504;-73
2023/08/23 03:10:22;;;;;;;14.90;10.13;;;16.60;99.90;;;;;;5080424;28;20048;-73
2023/08/23 03:12:48;;;;;;;15.65;9.50;;;16.60;99.90;;;;;;5091496;28;20044;-74
2023/08/23 03:15:14;;;;;;;15.50;10.18;;;16.60;99.90;;;;;;5089841;28;20040;-74
2023/08/23 03:17:39;;;;;;;16.40;10.88;;;16.60;99.90;;;;;;5073444;28;20052;-74
2023/08/23 03:20:06;;;;;;;17.58;10.15;;;16.60;99.90;;;;;;5076921;28;20469;-73
2023/08/23 03:22:31;;;;;;;15.85;10.60;;;16.60;99.90;;;;;;5079597;28;20040;-74
2023/08/23 03:24:57;;;;;;;14.23;9.98;;;16.60;99.90;;;;;;5084389;28;20036;-74
2023/08/23 03:27:26;;;;;;;18.40;10.68;;;16.60;99.90;;;;;;5083886;28;20036;-74
2023/08/23 03:29:52;;;;;;;20.67;10.95;;;16.70;99.90;;;;;;5091952;28;20029;-74
2023/08/23 03:32:19;;;;;;;17.55;11.02;;;16.70;99.90;;;;;;5083538;28;20135;-74
2023/08/23 03:34:46;;;;;;;21.40;11.52;;;16.70;99.90;;;;;;5087420;28;20055;-74
2023/08/23 03:37:12;;;;;;;20.00;11.07;;;16.70;99.90;;;;;;5072929;28;20048;-74
2023/08/23 03:39:38;;;;;;;19.10;11.90;;;16.70;99.90;;;;;;5081445;28;20564;-74
2023/08/23 03:42:04;;;;;;;23.83;12.27;;;16.70;99.90;;;;;;5079052;28;20072;-73
2023/08/23 03:44:30;;;;;;;15.55;10.43;;;16.70;99.90;;;;;;5093130;28;20433;-73
2023/08/23 03:46:57;;;;;;;17.02;10.60;;;16.70;99.90;;;;;;5087567;28;20037;-75
2023/08/23 03:49:22;;;;;;;16.10;10.45;;;16.70;99.90;;;;;;5092064;28;20039;-75
2023/08/23 03:51:48;;;;;;;15.77;10.35;;;16.70;99.90;;;;;;5093131;28;20058;-75
2023/08/23 03:54:14;;;;;;;15.18;9.77;;;16.70;99.90;;;;;;5080942;28;20466;-75
2023/08/23 03:56:39;;;;;;;14.43;9.70;;;16.70;99.90;;;;;;5087103;28;20447;-75
2023/08/23 03:59:05;;;;;;;14.38;9.68;;;16.70;99.90;;;;;;5095506;28;20044;-75
2023/08/23 04:01:31;;;;;;;14.48;9.60;;;16.70;99.90;;;;;;5087212;28;20075;-73
2023/08/23 04:03:56;;;;;;;13.50;8.65;;;16.70;99.90;;;;;;5082446;28;20313;-73
2023/08/23 04:06:22;;;;;;;13.05;9.45;;;16.70;99.90;;;;;;5085992;28;20043;-74
2023/08/23 04:08:47;;;;;;;12.27;9.10;;;16.70;99.90;;;;;;5082607;28;20045;-74
2023/08/23 04:11:13;;;;;;;13.27;9.43;;;16.70;99.90;;;;;;5083064;28;20044;-75
2023/08/23 04:13:39;;;;;;;9.65;8.35;;;16.60;99.90;;;;;;5087293;28;20494;-74
2023/08/23 04:16:04;;;;;;;11.32;8.60;;;16.60;99.90;;;;;;5093636;28;20036;-74
2023/08/23 04:18:30;;;;;;;13.20;9.98;;;16.60;99.90;;;;;;5083741;28;20052;-74
2023/08/23 04:20:59;;;;;;;13.60;9.65;;;16.50;99.90;;;;;;5091092;28;20494;-74
2023/08/23 04:23:25;;;;;;;15.05;10.23;;;16.50;99.90;;;;;;5092270;28;20123;-74
2023/08/23 04:25:51;;;;;;;12.95;9.98;;;16.50;99.90;;;;;;5081383;28;20111;-74
2023/08/23 04:28:17;;;;;;;12.55;9.70;;;16.50;99.90;;;;;;5118163;27;20150;-74
2023/08/23 04:30:42;;;;;;;15.02;9.40;;;16.50;99.90;;;;;;5093940;28;20052;-74
2023/08/23 04:33:09;;;;;;;15.95;10.50;;;16.50;99.90;;;;;;5094207;28;20056;-74
2023/08/23 04:35:36;;;;;;;14.18;9.43;;;16.50;99.90;;;;;;5067149;28;20044;-74
2023/08/23 04:38:01;;;;;;;14.10;9.57;;;16.50;99.90;;;;;;5094909;28;20048;-74
2023/08/23 04:40:28;;;;;;;12.75;9.20;;;16.50;99.90;;;;;;5080470;28;20032;-73
2023/08/23 04:42:53;;;;;;;15.15;9.15;;;16.50;99.90;;;;;;5093149;28;20055;-73
2023/08/23 04:45:19;;;;;;;12.57;9.45;;;16.50;99.90;;;;;;5077530;28;20040;-73
2023/08/23 04:47:45;;;;;;;16.55;10.18;;;16.50;99.90;;;;;;5082620;28;20047;-73
2023/08/23 04:50:11;;;;;;;13.95;10.82;;;16.50;99.90;;;;;;5102421;28;20047;-74
2023/08/23 04:52:36;;;;;;;16.60;11.82;;;16.50;99.90;;;;;;5089727;28;20075;-73
2023/08/23 04:55:03;;;;;;;19.20;11.88;;;16.50;99.90;;;;;;5088458;28;20032;-73
2023/08/23 04:57:28;;;;;;;18.95;13.43;;;16.50;99.90;;;;;;5080535;28;20445;-73
2023/08/23 04:59:54;;;;;;;20.77;14.43;;;16.60;99.90;;;;;;5093550;28;20040;-73
2023/08/23 05:02:19;;;;;;;22.02;13.85;;;16.60;99.90;;;;;;5096874;28;20041;-74
2023/08/23 05:04:45;;;;;;;20.83;14.25;;;16.60;99.90;;;;;;5094351;28;20044;-73
2023/08/23 05:07:12;;;;;;;20.15;13.98;;;16.70;99.90;;;;;;5081445;28;20048;-73
2023/08/23 05:09:38;;;;;;;27.97;14.87;;;16.70;99.90;;;;;;5092341;28;20071;-73
2023/08/23 05:12:04;;;;;;;24.55;15.98;;;16.70;99.90;;;;;;5081245;28;20796;-74
2023/08/23 05:14:29;;;;;;;23.33;15.25;;;16.70;99.90;;;;;;5081831;28;20039;-74
2023/08/23 05:16:56;;;;;;;24.85;15.85;;;16.70;99.90;;;;;;5088415;28;20036;-75
2023/08/23 05:19:22;;;;;;;28.25;16.52;;;16.70;99.90;;;;;;5083892;28;20083;-74
2023/08/23 05:21:47;;;;;;;24.38;17.35;;;16.70;99.90;;;;;;5092199;28;20079;-74
2023/08/23 05:24:13;;;;;;;30.48;17.02;;;16.70;99.90;;;;;;5092633;28;20044;-74
2023/08/23 05:26:39;;;;;;;23.33;16.85;;;16.80;99.90;;;;;;5087237;28;20032;-75
2023/08/23 05:29:05;;;;;;;24.27;17.10;;;16.70;99.90;;;;;;5091356;28;20036;-74
2023/08/23 05:31:30;;;;;;;25.20;15.95;;;16.80;99.90;;;;;;5089151;28;20456;-74
2023/08/23 05:33:56;;;;;;;28.33;17.73;;;16.80;99.90;;;;;;5090909;28;20079;-74
2023/08/23 05:36:21;;;;;;;26.15;17.27;;;16.80;99.90;;;;;;5085336;28;20035;-75
2023/08/23 05:38:50;;;;;;;27.92;18.30;;;16.90;99.90;;;;;;5094136;28;20050;-75
2023/08/23 05:41:15;;;;;;;27.17;19.08;;;16.90;99.90;;;;;;5100298;28;20071;-73
2023/08/23 05:43:41;;;;;;;26.48;17.80;;;16.90;99.90;;;;;;5077194;28;20446;-73
2023/08/23 05:46:07;;;;;;;27.08;17.42;;;16.90;99.90;;;;;;5086911;28;20033;-74
2023/08/23 05:48:34;;;;;;;26.85;18.15;;;16.90;99.90;;;;;;5101198;28;20489;-74
2023/08/23 05:51:02;;;;;;;32.20;18.95;;;16.90;99.90;;;;;;5083309;28;20044;-74
2023/08/23 05:53:28;;;;;;;28.88;17.17;;;16.90;99.90;;;;;;5087320;28;20042;-74
2023/08/23 05:55:54;;;;;;;28.75;18.02;;;16.90;99.90;;;;;;5083839;28;20511;-74
2023/08/23 05:58:19;;;;;;;27.00;17.80;;;16.90;99.90;;;;;;5082264;28;20613;-73
2023/08/23 06:00:46;;;;;;;24.25;16.88;;;17.00;99.90;;;;;;5091259;28;20044;-75
2023/08/23 06:03:15;;;;;;;30.02;18.63;;;17.10;99.90;;;;;;5090886;28;20076;-75
2023/08/23 06:05:41;;;;;;;25.88;17.10;;;17.20;99.90;;;;;;5095866;28;20040;-74
2023/08/23 06:08:08;;;;;;;24.38;16.05;;;17.30;99.90;;;;;;5095287;28;20570;-74
2023/08/23 06:10:34;;;;;;;23.10;15.77;;;17.40;99.90;;;;;;5087233;28;20048;-74
2023/08/23 06:12:59;;;;;;;22.75;14.88;;;17.60;99.90;;;;;;5078771;28;20032;-74
2023/08/23 06:15:25;;;;;;;22.42;14.57;;;17.60;99.90;;;;;;5090384;28;20071;-75
2023/08/23 06:17:53;;;;;;;20.75;13.60;;;17.80;99.90;;;;;;5082620;28;20107;-74
2023/08/23 06:20:19;;;;;;;17.25;12.25;;;17.90;99.90;;;;;;5096478;28;20075;-74
2023/08/23 06:22:45;;;;;;;18.05;11.25;;;18.10;99.90;;;;;;5087550;28;20413;-75
2023/08/23 06:25:10;;;;;;;17.27;12.15;;;18.40;99.90;;;;;;5081960;28;20036;-75
2023/08/23 06:27:37;;;;;;;17.77;11.23;;;18.50;99.90;;;;;;5085046;28;20517;-74
2023/08/23 06:30:06;;;;;;;15.50;11.18;;;18.50;99.90;;;;;;5094079;28;20040;-74
2023/08/23 06:32:32;;;;;;;15.95;10.60;;;18.50;99.90;;;;;;5089624;28;20081;-74
2023/08/23 06:34:58;;;;;;;15.95;10.88;;;18.50;99.90;;;;;;5080646;28;20131;-74
2023/08/23 06:37:24;;;;;;;16.33;10.80;;;18.40;99.90;;;;;;5096709;28;20032;-75
2023/08/23 06:39:50;;;;;;;17.00;11.27;;;18.40;99.90;;;;;;5090144;28;20041;-74
2023/08/23 06:42:17;;;;;;;16.58;11.95;;;18.50;99.90;;;;;;5084131;28;20033;-74
2023/08/23 06:44:43;;;;;;;15.50;11.00;;;18.60;99.90;;;;;;5085964;28;20044;-75
2023/08/23 06:47:09;;;;;;;18.23;11.88;;;18.80;99.90;;;;;;5088544;28;20377;-75
2023/08/23 06:49:35;;;;;;;16.55;11.70;;;19.00;99.90;;;;;;5095619;28;20048;-74
2023/08/23 06:52:01;;;;;;;18.02;11.70;;;19.20;99.90;;;;;;5088415;28;20032;-74
2023/08/23 06:54:27;;;;;;;17.65;10.95;;;19.40;99.90;;;;;;5086989;28;20043;-74
2023/08/23 06:56:52;;;;;;;17.50;11.80;;;19.60;99.90;;;;;;5087942;28;20071;-74
2023/08/23 06:59:18;;;;;;;17.40;12.15;;;19.80;99.90;;;;;;5084365;28;20097;-74
2023/08/23 07:01:44;;;;;;;15.82;11.10;;;20.00;99.90;;;;;;5085919;28;20047;-75
2023/08/23 07:04:10;;;;;;;18.73;11.23;;;20.20;99.90;;;;;;5089199;28;20090;-75
2023/08/23 07:06:36;;;;;;;14.73;10.57;;;20.30;99.90;;;;;;5100721;28;20105;-75
2023/08/23 07:09:01;;;;;;;16.45;11.20;;;20.40;99.90;;;;;;5095120;28;20044;-75
2023/08/23 07:11:27;;;;;;;16.00;11.90;;;20.50;99.90;;;;;;5088819;28;20044;-75
2023/08/23 07:13:52;;;;;;;14.48;11.30;;;20.50;99.90;;;;;;5090787;28;20066;-76
2023/08/23 07:16:18;;;;;;;16.08;11.63;;;20.50;99.90;;;;;;5088011;28;20036;-75
2023/08/23 07:18:44;;;;;;;14.80;11.52;;;20.60;99.90;;;;;;5085424;28;20409;-74
2023/08/23 07:21:09;;;;;;;15.07;10.57;;;20.60;99.90;;;;;;5083485;28;20138;-74
2023/08/23 07:23:35;;;;;;;21.33;11.90;;;20.70;99.90;;;;;;5085038;28;20040;-75
2023/08/23 07:26:03;;;;;;;14.30;11.10;;;20.70;99.90;;;;;;5078770;28;20112;-75
2023/08/23 07:28:29;;;;;;;12.93;10.80;;;20.80;99.90;;;;;;5101511;28;20439;-74
2023/08/23 07:30:57;;;;;;;14.63;10.02;;;20.80;99.90;;;;;;5092881;28;20059;-75
2023/08/23 07:33:29;;;;;;;12.88;9.80;;;20.90;99.90;;;;;;5087112;28;20044;-75
2023/08/23 07:36:01;;;;;;;13.40;9.00;;;21.00;99.90;;;;;;5092097;28;20044;-74
2023/08/23 07:38:28;;;;;;;15.10;9.00;;;21.10;99.90;;;;;;5103952;28;20051;-74
2023/08/23 07:40:58;;;;;;;10.77;7.93;;;21.30;99.90;;;;;;5095938;28;20490;-74
2023/08/23 07:43:24;;;;;;;11.32;7.88;;;21.40;99.90;;;;;;5076167;28;20037;-76
2023/08/23 07:45:58;;;;;;;14.65;8.50;;;21.50;99.90;;;;;;5075552;28;20040;-75
2023/08/23 07:48:24;;;;;;;11.93;8.00;;;21.60;99.90;;;;;;5074251;28;20406;-75
2023/08/23 07:50:57;;;;;;;11.65;8.40;;;21.80;99.90;;;;;;5093646;28;20115;-74
2023/08/23 07:53:25;;;;;;;11.55;8.45;;;21.80;99.90;;;;;;5087966;28;20118;-73
2023/08/23 07:55:52;;;;;;;14.38;8.18;;;21.80;99.90;;;;;;5085627;28;20076;-74
2023/08/23 07:58:18;;;;;;;10.77;8.53;;;21.70;99.90;;;;;;5096996;28;20086;-74
2023/08/23 08:00:44;;;;;;;10.85;8.38;;;21.60;99.90;;;;;;5086928;28;20700;-74
2023/08/23 08:03:11;;;;;;;12.32;7.25;;;21.50;99.90;;;;;;5080198;28;20389;-75
2023/08/23 08:05:37;;;;;;;12.10;7.32;;;21.40;99.90;;;;;;5081656;28;20139;-75
2023/08/23 08:08:04;;;;;;;10.60;6.72;;;21.40;99.90;;;;;;5097607;28;20479;-75
2023/08/23 08:10:30;;;;;;;9.90;7.03;;;21.50;99.90;;;;;;5075571;28;20040;-74
2023/08/23 08:12:58;;;;;;;12.65;7.55;;;21.70;99.90;;;;;;5101789;28;20054;-75
2023/08/23 08:15:25;;;;;;;14.48;8.30;;;21.80;99.90;;;;;;5083885;28;20044;-74
2023/08/23 08:17:51;;;;;;;13.32;8.02;;;21.90;99.90;;;;;;5089294;28;20105;-74
2023/08/23 08:20:18;;;;;;;13.02;7.60;;;22.00;99.90;;;;;;5084854;28;20097;-74
2023/08/23 08:22:44;;;;;;;9.15;6.85;;;22.10;99.90;;;;;;5069312;28;20032;-74
2023/08/23 08:25:10;;;;;;;8.95;6.35;;;22.20;99.90;;;;;;5086366;28;20040;-74
2023/08/23 08:27:36;;;;;;;18.23;7.35;;;22.40;99.90;;;;;;5092566;28;20047;-73
2023/08/23 08:30:02;;;;;;;10.32;7.40;;;22.50;99.90;;;;;;5091849;28;20173;-75
2023/08/23 08:32:28;;;;;;;11.68;6.85;;;22.60;99.90;;;;;;5093760;28;20145;-74
2023/08/23 08:34:55;;;;;;;13.07;6.47;;;22.70;99.90;;;;;;5087824;28;20495;-75
2023/08/23 08:37:24;;;;;;;10.40;6.90;;;22.90;99.90;;;;;;5082560;28;20352;-74
2023/08/23 08:39:49;;;;;;;16.88;7.47;;;23.10;99.90;;;;;;5075191;28;20044;-74
2023/08/23 08:42:15;;;;;;;10.60;6.63;;;23.10;99.90;;;;;;5082603;28;20078;-74
2023/08/23 08:44:44;;;;;;;11.73;6.60;;;23.20;99.90;;;;;;5089255;28;20029;-75
2023/08/23 08:47:09;;;;;;;8.82;6.25;;;23.20;99.90;;;;;;5077459;28;20402;-73
2023/08/23 08:49:35;;;;;;;12.88;7.40;;;23.40;99.90;;;;;;5086989;28;20039;-74
2023/08/23 08:52:04;;;;;;;10.70;6.90;;;23.40;99.90;;;;;;5108158;28;20043;-74
2023/08/23 08:54:34;;;;;;;13.95;6.55;;;23.30;99.90;;;;;;5092171;28;20561;-76
2023/08/23 08:57:01;;;;;;;10.45;6.40;;;23.30;99.90;;;;;;5106735;28;20046;-74
2023/08/23 08:59:27;;;;;;;12.63;7.57;;;23.30;99.90;;;;;;5087242;28;20448;-74
2023/08/23 09:01:55;;;;;;;10.10;6.43;;;23.40;99.90;;;;;;5084287;28;20040;-74
2023/08/23 09:04:21;;;;;;;11.02;7.72;;;23.40;99.90;;;;;;5083153;28;20482;-74
2023/08/23 09:06:47;;;;;;;14.25;7.50;;;23.40;99.90;;;;;;5081946;28;20082;-74
2023/08/23 09:09:13;;;;;;;10.77;7.32;;;23.40;99.90;;;;;;5090473;28;20055;-75
2023/08/23 09:11:39;;;;;;;11.57;6.35;;;23.50;99.90;;;;;;5084261;28;20040;-74
2023/08/23 09:14:16;;;;;;;10.70;6.82;;;23.50;99.90;;;;;;5084159;28;20044;-74
2023/08/23 09:16:42;;;;;;;12.18;6.50;;;23.50;99.90;;;;;;5088308;28;20394;-74
2023/08/23 09:19:10;;;;;;;7.57;5.40;;;23.70;99.90;;;;;;5085007;28;20190;-74
2023/08/23 09:21:35;;;;;;;7.57;5.93;;;23.90;99.90;;;;;;5095930;28;20098;-74
2023/08/23 09:24:01;;;;;;;12.98;6.38;;;24.00;99.90;;;;;;5088240;28;20064;-74
2023/08/23 09:26:27;;;;;;;9.05;5.65;;;24.00;99.90;;;;;;5091620;28;20028;-74
2023/08/23 09:28:53;;;;;;;11.70;6.05;;;23.90;99.90;;;;;;5086842;28;20136;-74
2023/08/23 09:31:18;;;;;;;10.95;6.50;;;23.90;99.90;;;;;;5087080;28;20043;-74
2023/08/23 09:33:46;;;;;;;8.15;5.55;;;23.90;99.90;;;;;;5096470;28;20070;-74
2023/08/23 09:36:22;;;;;;;8.95;5.60;;;24.10;99.90;;;;;;5105330;28;20059;-73
2023/08/23 09:38:47;;;;;;;11.60;6.15;;;24.30;99.90;;;;;;5089754;28;20044;-74
2023/08/23 09:41:13;;;;;;;10.70;6.65;;;24.40;99.90;;;;;;5089770;27;20057;-74
2023/08/23 09:43:39;;;;;;;10.23;6.65;;;24.60;99.90;;;;;;5078206;28;20036;-74
2023/08/23 09:46:07;;;;;;;13.05;7.75;;;24.50;99.90;;;;;;5084203;28;20041;-74
2023/08/23 09:48:34;;;;;;;10.75;5.90;;;24.50;99.90;;;;;;5088332;28;20047;-76
2023/08/23 09:51:02;;;;;;;9.63;6.80;;;24.50;99.90;;;;;;5084429;28;20847;-75
2023/08/23 09:53:33;;;;;;;11.13;7.07;;;24.60;99.90;;;;;;5089855;28;20071;-75
2023/08/23 09:56:02;;;;;;;11.38;7.20;;;24.60;99.90;;;;;;5080568;28;20032;-74
2023/08/23 09:58:29;;;;;;;10.02;6.85;;;24.50;99.90;;;;;;5096309;28;20493;-74
2023/08/23 10:00:55;;;;;;;11.20;7.60;;;24.40;99.90;;;;;;5088726;28;20043;-75
2023/08/23 10:03:23;;;;;;;10.60;7.22;;;24.30;99.90;;;;;;5082888;28;20412;-74
2023/08/23 10:05:50;;;;;;;12.75;7.22;;;24.10;99.90;;;;;;5099081;28;20044;-75
2023/08/23 10:08:18;;;;;;;12.52;7.22;;;24.20;99.90;;;;;;5098322;28;20047;-74
2023/08/23 10:10:45;;;;;;;13.48;7.15;;;24.10;99.90;;;;;;5085153;28;20505;-75
2023/08/23 10:13:11;;;;;;;11.77;7.18;;;24.00;99.90;;;;;;5090754;28;20047;-75
2023/08/23 10:15:39;;;;;;;13.27;8.48;;;23.90;99.90;;;;;;5067986;28;20044;-74
2023/08/23 10:18:12;;;;;;;11.68;7.82;;;24.00;99.90;;;;;;5074624;28;20336;-74
2023/08/23 10:20:38;;;;;;;13.95;8.55;;;23.90;99.90;;;;;;5077582;28;20098;-74
2023/08/23 10:23:18;;;;;;;15.07;8.52;;;23.90;99.90;;;;;;5073456;28;20497;-74
2023/08/23 10:25:45;;;;;;;12.93;7.82;;;24.00;99.90;;;;;;5072068;28;20442;-74
2023/08/23 10:28:18;;;;;;;11.40;6.43;;;24.10;99.90;;;;;;5090676;28;20490;-74
2023/08/23 10:30:46;;;;;;;10.52;6.05;;;24.30;99.90;;;;;;5086497;28;20047;-75
2023/08/23 10:33:14;;;;;;;9.13;5.38;;;24.60;99.90;;;;;;5082001;28;20039;-74
2023/08/23 10:35:42;;;;;;;10.20;5.40;;;24.90;99.90;;;;;;5085820;28;20044;-74
2023/08/23 10:38:09;;;;;;;8.50;5.65;;;25.10;99.90;;;;;;5048157;28;20036;-74
2023/08/23 10:40:37;;;;;;;7.53;5.32;;;25.40;99.90;;;;;;5080300;28;20162;-74
2023/08/23 10:43:09;;;;;;;11.38;5.47;;;25.60;99.90;;;;;;5077349;28;20040;-74
2023/08/23 10:45:51;;;;;;;12.23;5.75;;;25.90;99.90;;;;;;5087144;28;20093;-74
2023/08/23 10:48:21;;;;;;;7.03;3.03;;;26.10;99.90;;;;;;5090294;28;20074;-75
2023/08/23 10:50:48;;;;;;;5.93;3.53;;;26.20;99.90;;;;;;5078793;28;20032;-76
2023/08/23 10:53:15;;;;;;;8.47;4.23;;;26.40;99.90;;;;;;5090538;28;20089;-75
2023/08/23 10:55:41;;;;;;;5.70;3.50;;;26.60;99.90;;;;;;5088519;28;20290;-75
2023/08/23 10:58:07;;;;;;;8.90;3.97;;;26.80;99.90;;;;;;5081564;28;20078;-73
2023/08/23 11:00:33;;;;;;;7.80;4.68;;;27.20;99.90;;;;;;5089983;28;20044;-75
2023/08/23 11:02:59;;;;;;;6.57;3.75;;;27.40;99.90;;;;;;5080910;28;20036;-75
2023/08/23 11:05:24;;;;;;;6.88;3.58;;;27.60;99.90;;;;;;5081360;28;20032;-75
2023/08/23 11:07:51;;;;;;;9.65;3.67;;;27.80;99.90;;;;;;5098693;27;20040;-74
2023/08/23 11:10:18;;;;;;;8.20;3.75;;;28.00;99.20;;;;;;5090678;28;20108;-75
2023/08/23 11:12:44;;;;;;;5.65;3.40;;;28.00;98.90;;;;;;5099174;28;20097;-75
2023/08/23 11:15:11;;;;;;;7.30;3.35;;;28.20;98.90;;;;;;5067395;28;20490;-76
2023/08/23 11:17:37;;;;;;;8.13;3.35;;;28.40;97.80;;;;;;5085865;28;20044;-75
2023/08/23 11:20:04;;;;;;;7.47;4.00;;;28.50;97.80;;;;;;5084369;28;20071;-75
2023/08/23 11:22:30;;;;;;;8.20;4.25;;;28.60;96.00;;;;;;5091162;28;20051;-75
2023/08/23 11:24:59;;;;;;;7.93;3.72;;;28.70;96.90;;;;;;5087676;28;20371;-74
2023/08/23 11:27:26;;;;;;;7.65;3.28;;;28.90;97.20;;;;;;5110414;28;20045;-74
2023/08/23 11:29:52;;;;;;;10.35;4.18;;;29.00;96.70;;;;;;5075954;28;20055;-74
2023/08/23 11:32:19;;;;;;;6.93;3.40;;;29.20;95.90;;;;;;5092317;28;20040;-74
2023/08/23 11:34:46;;;;;;;5.97;2.60;;;29.40;94.90;;;;;;5094351;28;20050;-74
2023/08/23 11:37:12;;;;;;;7.45;2.47;;;29.60;95.30;;;;;;5071467;28;20048;-74
2023/08/23 11:39:38;;;;;;;5.18;2.20;;;29.80;94.50;;;;;;5097012;28;20040;-75
2023/08/23 11:42:05;;;;;;;8.38;2.33;;;29.80;93.80;;;;;;5094833;28;20044;-74
2023/08/23 11:44:31;;;;;;;;;;;29.90;92.80;;;;;;5086118;28;20127;-74
2023/08/23 11:46:59;;;;;;;4.38;2.15;;;29.80;90.90;;;;;;5095539;28;19920;-74
2023/08/23 11:49:26;;;;;;;6.63;2.25;;;29.60;91.70;;;;;;5097078;28;20047;-75
2023/08/23 11:51:53;;;;;;;;;;;29.10;92.00;;;;;;5090383;28;20052;-74
2023/08/23 11:54:22;;;;;;;6.10;2.50;;;28.50;91.90;;;;;;5086337;28;20015;-74
2023/08/23 11:56:47;;;;;;;4.43;2.15;;;28.10;92.80;;;;;;5118626;27;20064;-74
2023/08/23 11:59:16;;;;;;;4.65;2.30;;;27.50;93.10;;;;;;5100511;28;20043;-75
2023/08/23 12:01:42;;;;;;;6.93;2.40;;;27.10;93.60;;;;;;5087830;28;20051;-75
2023/08/23 12:04:10;;;;;;;6.40;2.33;;;27.00;93.00;;;;;;5085733;28;20046;-75
2023/08/23 12:06:35;;;;;;;5.80;2.10;;;27.00;93.30;;;;;;5089815;28;20044;-75
2023/08/23 12:09:01;;;;;;;10.82;2.63;;;26.70;93.60;;;;;;5095290;28;20100;-75
2023/08/23 12:11:27;;;;;;;7.65;2.17;;;26.50;92.80;;;;;;5089199;28;20047;-75
2023/08/23 12:13:53;;;;;;;10.38;2.67;;;26.20;93.40;;;;;;5090997;28;20044;-75
2023/08/23 12:16:18;;;;;;;10.80;2.88;;;26.00;93.80;;;;;;5094111;28;20040;-75
2023/08/23 12:18:48;;;;;;;5.85;2.50;;;25.70;94.70;;;;;;5087726;28;20052;-75
2023/08/23 12:21:15;;;;;;;51.10;5.55;;;25.60;95.70;;;;;;5086195;28;20402;-75
2023/08/23 12:23:40;;;;;;;5.97;2.30;;;25.80;96.60;;;;;;5100408;28;20127;-74
2023/08/23 12:26:06;;;;;;;8.00;1.85;;;26.30;96.70;;;;;;5088105;28;20128;-75
2023/08/23 12:28:32;;;;;;;6.45;1.88;;;26.70;96.50;;;;;;5086204;28;20044;-76
2023/08/23 12:30:58;;;;;;;4.65;2.20;;;27.10;95.50;;;;;;5087080;28;20498;-74
2023/08/23 12:33:23;;;;;;;5.57;1.67;;;27.40;95.10;;;;;;5080384;28;20037;-76